Bemis, Tennessee
Current Conditions -  °F | °C
As of 7:39 AM on Sunday 23 Nov 2014 (Local Time) from KMKL Reporting Station
Haze Haze  
Wind Chill: 55°   Ceiling: 600
Heat Index: 55°   Visibility: 4mi
Dew Point: 54°   Wind: 3mph
Humidity: 94%   Direction: 130°SE
Pressure: 29.78"   Gusts: NA
Location:  35.5761°N, 88.8215°W
Report Text: KMKL 231339Z 13003KT 4SM BR OVC006 13/12 A2978 RMK AO2
Loading
Personal Weather Stations






























Interactive Weather Map New forecast layout! Learn more

10-Day Weather Forecast

Advertisements
Track Severe Weather on mobile